< < Back
Terminal Aerodrome Forecast


Current Version              Previous Versions:   1  2  3  4  5  6  7  8  9  

Terminal Aerodrome Forecast

527
FTUS42 KILM 121134
TAFFLO
TAF
KFLO 121134Z 1212/1312 06009KT P6SM BKN060
     FM121500 06008KT 6SM -FZRAPL SCT010 OVC015
     FM121700 03007KT 4SM -RA BR OVC010
     FM122300 34005KT P6SM OVC025
     FM130400 28004KT P6SM SCT025 BKN250=



Latest METAR

306
SAUS70 KWBC 122200 RRB
MTRFLO
METAR KFLO 122153Z 00000KT 10SM OVC015 04/M04 A3005 RMK AO2 SLP174
T00391039


USA.gov is the U.S. government's official web portal to all federal, state and local government web resources and services.